createdAt,value
2019-04-01T00:00:35.049Z,11.22
2019-04-01T00:03:07.562Z,11.19
2019-04-01T00:05:38.877Z,11.36
2019-04-01T00:08:10.055Z,11.28
2019-04-01T00:10:41.296Z,11.21
2019-04-01T00:13:14.041Z,11.34
2019-04-01T00:15:45.179Z,11.29
2019-04-01T00:18:16.713Z,11.24
2019-04-01T00:20:48.193Z,11.11
2019-04-01T00:23:19.600Z,11.19
2019-04-01T00:25:50.881Z,11.20
2019-04-01T00:28:22.456Z,11.21
2019-04-01T00:30:53.531Z,11.08
2019-04-01T00:33:24.651Z,11.21
2019-04-01T00:35:55.859Z,11.19
2019-04-01T00:38:27.827Z,11.10
2019-04-01T00:40:58.927Z,11.07
2019-04-01T00:43:58.107Z,11.02
2019-04-01T00:46:31.043Z,11.10
2019-04-01T00:49:02.141Z,11.07
2019-04-01T00:51:33.173Z,11.05
2019-04-01T00:54:04.231Z,11.11
2019-04-01T00:56:35.257Z,10.94
2019-04-01T00:59:06.361Z,11.05
2019-04-01T01:01:37.378Z,11.03
2019-04-01T01:04:08.641Z,11.03
2019-04-01T01:06:39.644Z,11.09
2019-04-01T01:09:10.769Z,11.00
2019-04-01T01:11:41.875Z,10.95
2019-04-01T01:14:12.895Z,10.76
2019-04-01T01:16:43.994Z,10.67
2019-04-01T01:19:15.104Z,10.77
2019-04-01T01:21:46.867Z,10.55
2019-04-01T01:24:19.002Z,10.75
2019-04-01T01:26:50.059Z,10.61
2019-04-01T01:29:21.237Z,10.61
2019-04-01T01:31:52.257Z,10.39
2019-04-01T01:34:23.558Z,10.57
2019-04-01T01:36:54.656Z,10.58
2019-04-01T01:39:25.764Z,10.38
2019-04-01T01:41:56.975Z,10.61
2019-04-01T01:44:28.016Z,10.61
2019-04-01T01:46:59.063Z,10.59
2019-04-01T01:49:30.146Z,10.51
2019-04-01T01:52:01.232Z,10.48
2019-04-01T01:54:33.307Z,10.48
2019-04-01T01:57:04.459Z,10.50
2019-04-01T01:59:35.492Z,10.22
2019-04-01T02:02:07.435Z,10.44
2019-04-01T02:04:38.474Z,10.39
2019-04-01T02:07:09.575Z,10.40
2019-04-01T02:09:40.695Z,10.49
2019-04-01T02:12:11.770Z,10.42
2019-04-01T02:14:42.811Z,10.33
2019-04-01T02:17:14.080Z,10.24
2019-04-01T02:19:45.155Z,10.19
2019-04-01T02:22:16.253Z,10.09
2019-04-01T02:24:47.511Z,10.07
2019-04-01T02:27:18.541Z,10.03
2019-04-01T02:29:49.824Z,9.97
2019-04-01T02:32:20.847Z,10.02
2019-04-01T02:34:51.899Z,10.01
2019-04-01T02:37:22.921Z,9.83
2019-04-01T02:39:54.104Z,10.02
2019-04-01T02:42:25.360Z,9.86
2019-04-01T02:44:56.408Z,9.79
2019-04-01T02:47:27.497Z,9.84
2019-04-01T02:49:58.514Z,9.92
2019-04-01T02:52:29.524Z,10.02
2019-04-01T02:55:01.034Z,9.87
2019-04-01T02:57:33.276Z,9.92
2019-04-01T03:00:04.901Z,9.59
2019-04-01T03:02:35.895Z,9.77
2019-04-01T03:05:07.701Z,9.74
2019-04-01T03:07:38.800Z,9.88
2019-04-01T03:10:10.193Z,9.75
2019-04-01T03:12:41.298Z,9.56
2019-04-01T03:15:12.387Z,9.60
2019-04-01T03:17:43.472Z,9.56
2019-04-01T03:20:14.739Z,9.48
2019-04-01T03:22:45.763Z,9.58
2019-04-01T03:25:16.932Z,9.62
2019-04-01T03:27:48.124Z,9.75
2019-04-01T03:30:19.306Z,9.55
2019-04-01T03:32:50.395Z,9.66
2019-04-01T03:35:21.501Z,9.55
2019-04-01T03:37:52.673Z,9.59
2019-04-01T03:40:23.788Z,9.15
2019-04-01T03:42:54.794Z,9.51
2019-04-01T03:45:25.817Z,9.73
2019-04-01T03:47:57.080Z,9.66
2019-04-01T03:50:28.334Z,9.62
2019-04-01T03:52:59.331Z,9.22
2019-04-01T03:55:31.415Z,9.46
2019-04-01T03:58:02.510Z,9.17
2019-04-01T04:00:33.640Z,9.34
2019-04-01T04:03:04.758Z,9.49
2019-04-01T04:05:35.859Z,9.48
2019-04-01T04:08:06.936Z,9.44
2019-04-01T04:10:38.131Z,9.35
2019-04-01T04:13:09.505Z,9.18
2019-04-01T04:15:40.628Z,9.26
2019-04-01T04:18:11.839Z,9.39
2019-04-01T04:20:42.930Z,9.37
2019-04-01T04:23:14.011Z,9.46
2019-04-01T04:25:45.158Z,9.51
2019-04-01T04:28:16.143Z,9.54
2019-04-01T04:30:47.726Z,9.78
2019-04-01T04:33:18.952Z,9.29
2019-04-01T04:35:50.029Z,9.66
2019-04-01T04:38:21.039Z,9.64
2019-04-01T04:40:52.187Z,9.66
2019-04-01T04:43:23.199Z,9.07
2019-04-01T04:45:54.238Z,9.13
2019-04-01T04:48:25.349Z,9.26
2019-04-01T04:50:56.477Z,9.38
2019-04-01T04:53:27.519Z,9.44
2019-04-01T04:55:58.559Z,9.36
2019-04-01T04:58:29.660Z,9.03
2019-04-01T05:01:00.696Z,9.13
2019-04-01T05:03:31.734Z,9.16
2019-04-01T05:06:02.780Z,9.24
2019-04-01T05:08:33.827Z,9.15
2019-04-01T05:11:05.027Z,9.21
2019-04-01T05:13:38.003Z,9.28
2019-04-01T05:16:09.255Z,9.17
2019-04-01T05:18:40.386Z,8.97
2019-04-01T05:21:12.526Z,9.04
2019-04-01T05:23:43.868Z,9.09
2019-04-01T05:26:15.037Z,9.20
2019-04-01T05:28:47.882Z,9.22
2019-04-01T05:31:22.993Z,9.31
2019-04-01T05:33:56.216Z,9.20
2019-04-01T05:36:27.868Z,9.17
2019-04-01T05:38:59.023Z,8.87
2019-04-01T05:41:30.191Z,9.15
2019-04-01T05:44:02.660Z,8.78
2019-04-01T05:46:33.731Z,9.15
2019-04-01T05:49:04.807Z,9.29
2019-04-01T05:51:35.991Z,8.75
2019-04-01T05:54:07.243Z,8.82
2019-04-01T05:56:38.435Z,9.00
2019-04-01T05:59:09.593Z,8.84
2019-04-01T06:01:43.847Z,8.83
2019-04-01T06:04:15.118Z,8.87
2019-04-01T06:06:48.772Z,8.93
2019-04-01T06:09:19.327Z,9.10
2019-04-01T06:11:50.461Z,9.28
2019-04-01T06:14:21.908Z,8.78
2019-04-01T06:16:53.071Z,9.25
2019-04-01T06:19:24.454Z,9.52
2019-04-01T06:21:56.234Z,9.35
2019-04-01T06:24:27.319Z,9.29
2019-04-01T06:26:59.834Z,9.05
2019-04-01T06:29:31.532Z,8.77
2019-04-01T06:32:02.883Z,8.99
2019-04-01T06:34:34.115Z,8.81
2019-04-01T06:37:05.362Z,8.88
2019-04-01T06:39:36.503Z,9.11
2019-04-01T06:42:07.619Z,9.23
2019-04-01T06:44:39.785Z,9.11
2019-04-01T06:47:10.959Z,9.09
2019-04-01T06:49:42.090Z,9.20
2019-04-01T06:52:13.215Z,9.17
2019-04-01T06:54:44.271Z,9.42
2019-04-01T06:57:16.437Z,9.47
2019-04-01T06:59:47.981Z,9.50
2019-04-01T07:02:19.373Z,9.58
2019-04-01T07:04:50.728Z,9.37
2019-04-01T07:07:21.920Z,9.37
2019-04-01T07:09:53.347Z,9.31
2019-04-01T07:12:24.543Z,9.59
2019-04-01T07:14:55.570Z,9.36
2019-04-01T07:17:26.745Z,9.57
2019-04-01T07:19:57.904Z,9.79
2019-04-01T07:22:28.923Z,9.71
2019-04-01T07:25:00.080Z,10.04
2019-04-01T07:27:31.935Z,10.53
2019-04-01T07:30:03.330Z,10.76
2019-04-01T07:32:35.056Z,10.34
2019-04-01T07:35:06.988Z,10.56
2019-04-01T07:37:38.206Z,10.54
2019-04-01T07:40:13.814Z,10.61
2019-04-01T07:42:43.889Z,10.85
2019-04-01T07:45:15.255Z,10.81
2019-04-01T07:47:46.454Z,11.00
2019-04-01T07:50:18.011Z,11.12
2019-04-01T07:52:49.257Z,11.18
2019-04-01T07:55:20.435Z,11.37
2019-04-01T07:57:51.494Z,11.30
2019-04-01T08:00:22.719Z,11.44
2019-04-01T08:02:53.957Z,11.44
2019-04-01T08:05:26.218Z,11.60
2019-04-01T08:07:58.042Z,11.55
2019-04-01T08:10:29.279Z,11.78
2019-04-01T08:13:00.350Z,12.32
2019-04-01T08:15:31.405Z,12.28
2019-04-01T08:18:02.556Z,11.95
2019-04-01T08:20:33.711Z,11.91
2019-04-01T08:23:05.232Z,12.06
2019-04-01T08:25:36.507Z,12.31
2019-04-01T08:28:07.647Z,12.47
2019-04-01T08:30:38.923Z,12.38
2019-04-01T08:33:09.934Z,12.89
2019-04-01T08:35:41.006Z,13.15
2019-04-01T08:38:12.131Z,12.44
2019-04-01T08:40:43.308Z,12.49
2019-04-01T08:43:15.841Z,12.28
2019-04-01T08:45:47.131Z,12.46
2019-04-01T08:48:18.429Z,12.62
2019-04-01T08:50:49.590Z,12.84
2019-04-01T08:53:21.332Z,12.60
2019-04-01T08:56:00.265Z,12.79
2019-04-01T08:58:25.305Z,12.98
2019-04-01T09:00:56.895Z,13.38
2019-04-01T09:03:28.023Z,13.60
2019-04-01T09:05:59.321Z,13.88
2019-04-01T09:08:30.849Z,13.61
2019-04-01T09:11:02.095Z,14.05
2019-04-01T09:13:33.750Z,14.17
2019-04-01T09:16:06.287Z,13.55
2019-04-01T09:18:37.405Z,13.62
2019-04-01T09:21:08.533Z,13.23
2019-04-01T09:23:39.602Z,13.16
2019-04-01T09:26:10.815Z,13.31
2019-04-01T09:28:41.852Z,13.11
2019-04-01T09:31:13.029Z,13.63
2019-04-01T09:33:44.065Z,13.33
2019-04-01T09:36:15.186Z,13.54
2019-04-01T09:38:46.231Z,13.93
2019-04-01T09:41:17.412Z,13.57
2019-04-01T09:43:48.591Z,13.96
2019-04-01T09:46:19.587Z,13.86
2019-04-01T09:48:51.751Z,13.93
2019-04-01T09:51:22.941Z,14.08
2019-04-01T09:53:54.139Z,14.17
2019-04-01T09:56:25.398Z,13.99
2019-04-01T09:58:56.646Z,14.03
2019-04-01T10:01:27.682Z,13.78
2019-04-01T10:03:58.890Z,14.15
2019-04-01T10:06:30.047Z,13.94
2019-04-01T10:09:01.176Z,14.44
2019-04-01T10:11:33.537Z,14.18
2019-04-01T10:14:04.796Z,13.90
2019-04-01T10:16:35.861Z,14.16
2019-04-01T10:19:07.113Z,14.34
2019-04-01T10:21:38.124Z,14.77
2019-04-01T10:24:09.241Z,14.70
2019-04-01T10:26:40.270Z,14.78
2019-04-01T10:29:11.390Z,14.23
2019-04-01T10:31:42.509Z,14.08
2019-04-01T10:34:13.806Z,14.20
2019-04-01T10:36:45.194Z,14.48
2019-04-01T10:39:16.257Z,14.58
2019-04-01T10:41:47.281Z,14.84
2019-04-01T10:44:18.331Z,15.23
2019-04-01T10:46:49.522Z,14.88
2019-04-01T10:49:20.633Z,14.48
2019-04-01T10:51:51.753Z,14.57
2019-04-01T10:54:23.015Z,14.51
2019-04-01T10:56:54.220Z,14.29
2019-04-01T10:59:25.293Z,14.16
2019-04-01T11:01:56.513Z,14.59
2019-04-01T11:04:27.745Z,15.05
2019-04-01T11:06:58.831Z,15.15
2019-04-01T11:09:38.092Z,14.42
2019-04-01T11:12:03.152Z,14.58
2019-04-01T11:14:34.320Z,14.97
2019-04-01T11:17:05.511Z,15.20
2019-04-01T11:19:36.721Z,14.82
2019-04-01T11:22:07.837Z,14.77
2019-04-01T11:24:38.910Z,14.94
2019-04-01T11:27:09.927Z,14.70
2019-04-01T11:29:41.079Z,14.77
2019-04-01T11:32:13.570Z,14.57
2019-04-01T11:34:45.028Z,15.01
2019-04-01T11:37:16.297Z,14.97
2019-04-01T11:39:47.495Z,14.63
2019-04-01T11:42:18.587Z,15.05
2019-04-01T11:44:49.775Z,14.80
2019-04-01T11:47:22.256Z,14.66
2019-04-01T11:49:53.711Z,14.58
2019-04-01T11:52:24.880Z,14.76
2019-04-01T11:54:55.931Z,15.05
2019-04-01T11:57:26.953Z,15.16
2019-04-01T11:59:58.162Z,14.94
2019-04-01T12:02:29.231Z,14.69
2019-04-01T12:05:00.539Z,14.87
2019-04-01T12:07:32.839Z,14.90
2019-04-01T12:10:07.368Z,14.98
2019-04-01T12:12:37.068Z,15.17
2019-04-01T12:15:12.314Z,15.32
2019-04-01T12:17:42.782Z,15.31
2019-04-01T12:20:14.288Z,15.59
2019-04-01T12:22:46.142Z,15.66
2019-04-01T12:25:17.235Z,15.60
2019-04-01T12:27:48.326Z,15.37
2019-04-01T12:30:19.727Z,15.31
2019-04-01T12:32:51.948Z,15.54
2019-04-01T12:35:23.122Z,15.91
2019-04-01T12:37:54.284Z,15.72
2019-04-01T12:40:25.482Z,15.81
2019-04-01T12:42:56.707Z,15.78
2019-04-01T12:45:27.910Z,15.76
2019-04-01T12:47:58.911Z,15.53
2019-04-01T12:50:30.109Z,15.96
2019-04-01T12:53:01.148Z,15.66
2019-04-01T12:55:32.320Z,15.67
2019-04-01T12:58:03.332Z,15.77
2019-04-01T13:00:34.457Z,16.02
2019-04-01T13:03:05.553Z,15.45
2019-04-01T13:05:36.686Z,15.79
2019-04-01T13:08:07.871Z,16.03
2019-04-01T13:10:38.921Z,16.07
2019-04-01T13:13:12.836Z,15.79
2019-04-01T13:15:42.769Z,15.77
2019-04-01T13:18:13.776Z,16.02
2019-04-01T13:20:44.824Z,15.74
2019-04-01T13:23:15.923Z,15.85
2019-04-01T13:25:47.166Z,16.16
2019-04-01T13:28:18.424Z,16.05
2019-04-01T13:30:49.543Z,16.04
2019-04-01T13:33:20.612Z,15.96
2019-04-01T13:35:52.938Z,16.23
2019-04-01T13:38:25.560Z,16.11
2019-04-01T13:40:56.724Z,16.50
2019-04-01T13:43:27.731Z,16.36
2019-04-01T13:45:58.832Z,16.24
2019-04-01T13:48:29.915Z,16.02
2019-04-01T13:51:01.333Z,16.17
2019-04-01T13:53:32.585Z,15.97
2019-04-01T13:56:03.705Z,16.42
2019-04-01T13:58:34.889Z,16.00
2019-04-01T14:01:06.078Z,16.37
2019-04-01T14:03:37.161Z,16.54
2019-04-01T14:06:08.409Z,16.67
2019-04-01T14:08:39.474Z,16.32
2019-04-01T14:11:10.865Z,16.39
2019-04-01T14:13:41.887Z,16.46
2019-04-01T14:16:12.982Z,16.45
2019-04-01T14:18:44.077Z,16.47
2019-04-01T14:21:18.935Z,16.80
2019-04-01T14:23:48.199Z,16.48
2019-04-01T14:26:19.324Z,16.43
2019-04-01T14:28:50.581Z,16.26
2019-04-01T14:31:21.716Z,16.05
2019-04-01T14:33:52.741Z,16.19
2019-04-01T14:36:23.877Z,16.32
2019-04-01T14:38:54.888Z,16.15
2019-04-01T14:41:26.097Z,16.15
2019-04-01T14:43:57.124Z,15.97
2019-04-01T14:46:28.297Z,16.03
2019-04-01T14:49:00.465Z,16.14
2019-04-01T14:51:32.065Z,16.56
2019-04-01T14:54:03.076Z,16.75
2019-04-01T14:56:34.201Z,16.98
2019-04-01T14:59:05.383Z,17.01
2019-04-01T15:01:36.494Z,16.79
2019-04-01T15:04:07.604Z,16.61
2019-04-01T15:06:38.791Z,16.93
2019-04-01T15:09:11.145Z,16.30
2019-04-01T15:11:42.877Z,16.29
2019-04-01T15:14:14.938Z,16.45
2019-04-01T15:16:46.133Z,16.64
2019-04-01T15:19:17.286Z,16.59
2019-04-01T15:21:48.409Z,16.74
2019-04-01T15:24:19.564Z,16.78
2019-04-01T15:26:50.684Z,16.93
2019-04-01T15:29:21.726Z,16.96
2019-04-01T15:31:53.475Z,17.06
2019-04-01T15:34:25.536Z,17.18
2019-04-01T15:36:56.602Z,16.74
2019-04-01T15:39:27.627Z,16.68
2019-04-01T15:41:58.675Z,16.70
2019-04-01T15:44:29.707Z,16.84
2019-04-01T15:47:04.475Z,17.14
2019-04-01T15:49:34.535Z,17.29
2019-04-01T15:52:06.015Z,16.88
2019-04-01T15:54:37.079Z,16.73
2019-04-01T15:57:08.110Z,16.89
2019-04-01T15:59:39.143Z,16.74
2019-04-01T16:02:10.359Z,17.06
2019-04-01T16:04:41.469Z,16.85
2019-04-01T16:07:12.610Z,16.48
2019-04-01T16:09:43.644Z,16.44
2019-04-01T16:12:16.012Z,16.71
2019-04-01T16:14:47.234Z,16.70
2019-04-01T16:17:18.321Z,16.49
2019-04-01T16:19:49.363Z,16.61
2019-04-01T16:22:21.909Z,16.57
2019-04-01T16:24:53.342Z,16.16
2019-04-01T16:27:24.386Z,16.10
2019-04-01T16:29:55.593Z,16.59
2019-04-01T16:32:26.734Z,16.34
2019-04-01T16:34:57.854Z,16.36
2019-04-01T16:37:28.919Z,16.43
2019-04-01T16:40:00.025Z,16.50
2019-04-01T16:42:31.219Z,16.21
2019-04-01T16:45:02.397Z,16.30
2019-04-01T16:47:33.516Z,16.14
2019-04-01T16:50:05.602Z,16.20
2019-04-01T16:52:36.834Z,16.21
2019-04-01T16:55:09.316Z,16.00
2019-04-01T16:57:40.434Z,16.08
2019-04-01T17:00:14.631Z,16.18
2019-04-01T17:02:45.537Z,15.99
2019-04-01T17:05:19.397Z,16.28
2019-04-01T17:07:50.429Z,15.95
2019-04-01T17:10:24.932Z,15.84
2019-04-01T17:12:55.963Z,15.98
2019-04-01T17:15:27.384Z,15.97
2019-04-01T17:17:58.542Z,15.96
2019-04-01T17:20:29.770Z,15.99
2019-04-01T17:23:01.135Z,16.10
2019-04-01T17:25:33.683Z,15.84
2019-04-01T17:28:04.989Z,15.79
2019-04-01T17:30:36.167Z,15.81
2019-04-01T17:33:08.584Z,15.79
2019-04-01T17:35:40.070Z,15.72
2019-04-01T17:38:13.623Z,15.59
2019-04-01T17:40:44.084Z,15.52
2019-04-01T17:43:16.822Z,15.51
2019-04-01T17:45:48.699Z,15.23
2019-04-01T17:48:19.991Z,15.37
2019-04-01T17:50:51.040Z,15.43
2019-04-01T17:53:22.281Z,15.28
2019-04-01T17:55:53.560Z,15.36
2019-04-01T17:58:24.706Z,15.28
2019-04-01T18:00:57.981Z,15.27
2019-04-01T18:03:29.158Z,15.19
2019-04-01T18:06:00.196Z,15.09
2019-04-01T18:08:31.418Z,15.09
2019-04-01T18:11:02.463Z,14.99
2019-04-01T18:13:33.517Z,15.00
2019-04-01T18:16:04.722Z,14.91
2019-04-01T18:18:35.776Z,14.92
2019-04-01T18:21:06.801Z,14.73
2019-04-01T18:23:37.864Z,14.64
2019-04-01T18:26:08.936Z,14.58
2019-04-01T18:28:40.321Z,14.63
2019-04-01T18:31:12.446Z,14.63
2019-04-01T18:33:55.669Z,14.38
2019-04-01T18:36:16.261Z,13.19
2019-04-01T18:38:47.316Z,13.10
2019-04-01T18:41:18.565Z,13.07
2019-04-01T18:43:49.680Z,13.09
2019-04-01T18:46:21.192Z,13.02
2019-04-01T18:48:52.837Z,12.72
2019-04-01T18:51:23.943Z,12.77
2019-04-01T18:53:55.161Z,12.74
2019-04-01T18:56:26.199Z,12.78
2019-04-01T18:58:57.263Z,12.64
2019-04-01T19:01:28.428Z,12.78
2019-04-01T19:04:00.531Z,12.90
2019-04-01T19:06:31.542Z,12.57
2019-04-01T19:09:09.209Z,12.73
2019-04-01T19:11:36.106Z,12.51
2019-04-01T19:14:07.351Z,12.39
2019-04-01T19:16:38.547Z,12.30
2019-04-01T19:19:11.092Z,12.40
2019-04-01T19:21:42.259Z,12.24
2019-04-01T19:24:13.377Z,12.22
2019-04-01T19:26:44.547Z,12.03
2019-04-01T19:29:16.235Z,12.09
2019-04-01T19:31:51.004Z,12.42
2019-04-01T19:34:20.396Z,12.52
2019-04-01T19:36:51.428Z,12.42
2019-04-01T19:39:23.247Z,12.12
2019-04-01T19:41:54.547Z,12.00
2019-04-01T19:44:25.623Z,11.94
2019-04-01T19:46:56.769Z,11.99
2019-04-01T19:49:28.344Z,11.87
2019-04-01T19:51:59.611Z,11.68
2019-04-01T19:54:33.824Z,11.78
2019-04-01T19:57:03.861Z,11.81
2019-04-01T19:59:35.816Z,11.74
2019-04-01T20:02:09.596Z,11.61
2019-04-01T20:04:40.105Z,11.42
2019-04-01T20:07:11.241Z,11.77
2019-04-01T20:09:42.305Z,11.35
2019-04-01T20:12:13.411Z,11.70
2019-04-01T20:14:44.597Z,11.40
2019-04-01T20:17:15.753Z,11.15
2019-04-01T20:19:47.020Z,11.24
2019-04-01T20:22:18.104Z,11.28
2019-04-01T20:24:50.200Z,11.35
2019-04-01T20:27:21.375Z,11.36
2019-04-01T20:29:52.397Z,10.88
2019-04-01T20:32:23.438Z,11.35
2019-04-01T20:34:57.264Z,11.28
2019-04-01T20:37:29.323Z,11.17
2019-04-01T20:40:00.704Z,11.12
2019-04-01T20:42:33.677Z,10.87
2019-04-01T20:45:05.566Z,10.83
2019-04-01T20:47:36.970Z,11.39
2019-04-01T20:50:09.791Z,11.65
2019-04-01T20:52:41.060Z,10.72
2019-04-01T20:55:13.987Z,10.92
2019-04-01T20:57:46.092Z,10.92
2019-04-01T21:00:19.093Z,10.17
2019-04-01T21:02:50.229Z,10.80
2019-04-01T21:05:21.481Z,10.78
2019-04-01T21:07:52.720Z,10.52
2019-04-01T21:10:23.999Z,10.43
2019-04-01T21:12:55.143Z,10.43
2019-04-01T21:15:26.378Z,10.41
2019-04-01T21:17:57.528Z,10.53
2019-04-01T21:20:28.612Z,10.45
2019-04-01T21:22:59.729Z,10.51
2019-04-01T21:25:31.070Z,11.37
2019-04-01T21:28:02.480Z,10.64
2019-04-01T21:30:33.643Z,10.19
2019-04-01T21:33:04.793Z,10.09
2019-04-01T21:35:35.975Z,10.51
2019-04-01T21:38:09.134Z,10.84
2019-04-01T21:40:40.319Z,10.12
2019-04-01T21:43:11.506Z,10.12
2019-04-01T21:45:42.533Z,10.09
2019-04-01T21:48:13.562Z,9.86
2019-04-01T21:50:44.610Z,10.27
2019-04-01T21:53:15.810Z,9.56
2019-04-01T21:55:47.014Z,10.39
2019-04-01T21:58:19.147Z,10.28
2019-04-01T22:00:57.294Z,10.08
2019-04-01T22:03:30.090Z,10.07
2019-04-01T22:06:01.111Z,10.16
2019-04-01T22:08:32.242Z,10.00
2019-04-01T22:11:03.353Z,9.92
2019-04-01T22:13:34.528Z,10.10
2019-04-01T22:16:05.739Z,10.20
2019-04-01T22:18:36.854Z,10.01
2019-04-01T22:21:07.990Z,9.85
2019-04-01T22:23:39.091Z,9.94
2019-04-01T22:26:10.086Z,9.66
2019-04-01T22:28:41.190Z,9.67
2019-04-01T22:31:12.306Z,9.83
2019-04-01T22:33:43.337Z,9.68
2019-04-01T22:36:14.330Z,9.67
2019-04-01T22:38:45.433Z,9.59
2019-04-01T22:41:17.830Z,9.66
2019-04-01T22:43:48.871Z,8.92
2019-04-01T22:46:19.867Z,9.34
2019-04-01T22:48:50.878Z,9.21
2019-04-01T22:51:21.991Z,9.58
2019-04-01T22:53:53.026Z,9.61
2019-04-01T22:56:24.114Z,9.55
2019-04-01T22:58:55.535Z,9.86
2019-04-01T23:01:26.548Z,9.67
2019-04-01T23:03:57.550Z,9.64
2019-04-01T23:06:28.656Z,9.79
2019-04-01T23:09:00.093Z,10.15
2019-04-01T23:11:33.812Z,10.27
2019-04-01T23:14:04.845Z,9.77
2019-04-01T23:16:35.851Z,9.99
2019-04-01T23:19:06.841Z,9.94
2019-04-01T23:21:37.881Z,9.87
2019-04-01T23:24:08.940Z,9.60
2019-04-01T23:26:40.294Z,9.80
2019-04-01T23:29:11.402Z,9.76
2019-04-01T23:31:42.550Z,9.74
2019-04-01T23:34:14.119Z,9.79
2019-04-01T23:36:45.087Z,9.78
2019-04-01T23:39:16.101Z,9.16
2019-04-01T23:41:47.311Z,8.68
2019-04-01T23:44:18.450Z,8.93
2019-04-01T23:46:49.498Z,9.74
2019-04-01T23:49:20.548Z,9.47
2019-04-01T23:51:51.680Z,9.52
2019-04-01T23:54:22.716Z,9.47
2019-04-01T23:56:53.886Z,9.66
2019-04-01T23:59:25.022Z,9.44
